createdAt,value
2023-04-14T00:01:54.288Z,3.40
2023-04-14T00:04:20.839Z,4.00
2023-04-14T00:06:47.301Z,4.07
2023-04-14T00:09:13.685Z,4.57
2023-04-14T00:11:40.063Z,3.63
2023-04-14T00:14:06.995Z,4.83
2023-04-14T00:16:33.442Z,4.57
2023-04-14T00:19:00.140Z,4.20
2023-04-14T00:21:26.980Z,3.97
2023-04-14T00:23:53.360Z,4.50
2023-04-14T00:26:19.760Z,4.40
2023-04-14T00:28:46.629Z,4.37
2023-04-14T00:31:15.698Z,3.73
2023-04-14T00:33:42.076Z,4.33
2023-04-14T00:36:08.502Z,4.10
2023-04-14T00:38:34.878Z,4.70
2023-04-14T00:41:01.445Z,4.40
2023-04-14T00:43:27.847Z,4.37
2023-04-14T00:45:54.473Z,4.27
2023-04-14T00:48:21.031Z,4.13
2023-04-14T00:50:47.946Z,4.67
2023-04-14T00:53:14.686Z,4.13
2023-04-14T00:55:41.511Z,4.73
2023-04-14T00:58:08.709Z,5.30
2023-04-14T01:00:36.076Z,5.30
2023-04-14T01:03:02.637Z,4.47
2023-04-14T01:05:29.250Z,4.80
2023-04-14T01:07:55.785Z,4.90
2023-04-14T01:10:29.299Z,4.83
2023-04-14T01:13:20.825Z,4.10
2023-04-14T01:15:50.153Z,4.70
2023-04-14T01:18:38.526Z,4.63
2023-04-14T01:21:19.926Z,4.37
2023-04-14T01:24:25.943Z,4.70
2023-04-14T01:27:04.664Z,4.47
2023-04-14T01:29:50.382Z,4.53
2023-04-14T01:32:21.974Z,5.00
2023-04-14T01:34:56.292Z,4.37
2023-04-14T01:37:31.992Z,4.67
2023-04-14T01:40:11.256Z,4.63
2023-04-14T01:42:40.178Z,4.10
2023-04-14T01:45:11.748Z,3.93
2023-04-14T01:47:41.860Z,4.20
2023-04-14T01:50:11.210Z,3.83
2023-04-14T01:52:39.246Z,4.30
2023-04-14T01:55:07.684Z,4.00
2023-04-14T01:57:36.600Z,4.70
2023-04-14T02:00:04.902Z,4.57
2023-04-14T02:02:42.722Z,3.77
2023-04-14T02:05:09.937Z,4.27
2023-04-14T02:07:37.044Z,4.70
2023-04-14T02:10:06.459Z,3.80
2023-04-14T02:12:34.024Z,4.60
2023-04-14T02:15:01.732Z,5.07
2023-04-14T02:17:30.225Z,3.97
2023-04-14T02:19:59.916Z,4.70
2023-04-14T02:22:26.537Z,4.33
2023-04-14T02:24:55.078Z,3.93
2023-04-14T02:27:33.520Z,4.00
2023-04-14T02:30:08.402Z,4.20
2023-04-14T02:32:38.885Z,4.73
2023-04-14T02:35:12.031Z,4.30
2023-04-14T02:37:43.701Z,7.37
2023-04-14T02:40:17.278Z,8.23
2023-04-14T02:42:48.064Z,9.60
2023-04-14T02:45:21.140Z,5.77
2023-04-14T02:47:54.699Z,4.33
2023-04-14T02:50:22.691Z,3.83
2023-04-14T02:53:03.104Z,4.30
2023-04-14T02:55:34.754Z,3.97
2023-04-14T02:58:01.575Z,4.50
2023-04-14T03:00:31.002Z,4.13
2023-04-14T03:02:59.665Z,5.17
2023-04-14T03:05:26.947Z,6.13
2023-04-14T03:08:04.070Z,4.23
2023-04-14T03:10:32.494Z,4.40
2023-04-14T03:13:01.840Z,4.25
2023-04-14T03:15:29.329Z,5.03
2023-04-14T03:17:57.251Z,4.73
2023-04-14T03:20:26.706Z,4.20
2023-04-14T03:23:05.177Z,4.50
2023-04-14T03:25:40.875Z,4.57
2023-04-14T03:28:15.896Z,4.80
2023-04-14T03:30:47.439Z,5.43
2023-04-14T03:33:19.747Z,4.50
2023-04-14T03:35:47.529Z,4.13
2023-04-14T03:38:16.120Z,3.97
2023-04-14T03:40:47.576Z,5.07
2023-04-14T03:43:22.321Z,4.33
2023-04-14T03:45:53.294Z,4.70
2023-04-14T03:48:21.252Z,5.33
2023-04-14T03:50:52.551Z,3.87
2023-04-14T03:53:21.590Z,4.93
2023-04-14T03:55:50.828Z,5.93
2023-04-14T03:58:18.682Z,4.00
2023-04-14T04:00:47.509Z,5.60
2023-04-14T04:03:15.558Z,5.67
2023-04-14T04:05:43.862Z,5.03
2023-04-14T04:08:11.377Z,5.47
2023-04-14T04:10:38.638Z,4.53
2023-04-14T04:13:17.084Z,4.63
2023-04-14T04:15:47.079Z,5.57
2023-04-14T04:18:16.504Z,4.90
2023-04-14T04:20:46.053Z,4.43
2023-04-14T04:23:16.549Z,5.37
2023-04-14T04:25:43.760Z,4.70
2023-04-14T04:28:24.135Z,4.97
2023-04-14T04:30:52.568Z,5.77
2023-04-14T04:33:19.909Z,5.33
2023-04-14T04:35:47.765Z,6.20
2023-04-14T04:38:14.226Z,6.03
2023-04-14T04:40:44.020Z,5.87
2023-04-14T04:43:19.503Z,5.77
2023-04-14T04:45:58.321Z,5.90
2023-04-14T04:48:25.896Z,5.80
2023-04-14T04:50:52.259Z,4.93
2023-04-14T04:53:18.724Z,5.17
2023-04-14T04:55:45.260Z,5.17
2023-04-14T04:58:11.575Z,4.83
2023-04-14T05:00:37.925Z,5.83
2023-04-14T05:03:04.403Z,4.83
2023-04-14T05:05:35.482Z,5.60
2023-04-14T05:08:02.140Z,6.13
2023-04-14T05:10:28.754Z,5.80
2023-04-14T05:12:55.137Z,5.50
2023-04-14T05:15:21.472Z,5.80
2023-04-14T05:17:47.863Z,5.13
2023-04-14T05:20:14.230Z,5.33
2023-04-14T05:22:40.759Z,5.77
2023-04-14T05:25:07.889Z,5.90
2023-04-14T05:27:34.274Z,5.63
2023-04-14T05:30:00.703Z,7.00
2023-04-14T05:32:29.001Z,5.40
2023-04-14T05:34:56.020Z,7.37
2023-04-14T05:37:22.418Z,6.90
2023-04-14T05:39:48.767Z,6.60
2023-04-14T05:42:15.378Z,7.63
2023-04-14T05:44:41.706Z,7.33
2023-04-14T05:47:08.125Z,7.77
2023-04-14T05:49:36.039Z,6.50
2023-04-14T05:52:02.472Z,6.73
2023-04-14T05:54:28.822Z,6.43
2023-04-14T05:56:56.270Z,7.93
2023-04-14T05:59:22.613Z,8.40
2023-04-14T06:01:49.109Z,9.77
2023-04-14T06:04:15.765Z,8.63
2023-04-14T06:06:42.260Z,8.53
2023-04-14T06:09:08.621Z,9.03
2023-04-14T06:11:34.969Z,9.37
2023-04-14T06:14:02.681Z,9.83
2023-04-14T06:16:29.374Z,10.17
2023-04-14T06:18:55.759Z,10.67
2023-04-14T06:21:22.122Z,11.97
2023-04-14T06:23:48.500Z,13.03
2023-04-14T06:26:14.959Z,11.37
2023-04-14T06:28:43.715Z,12.53
2023-04-14T06:31:10.349Z,12.97
2023-04-14T06:33:36.694Z,13.00
2023-04-14T06:36:03.259Z,13.00
2023-04-14T06:38:29.639Z,11.83
2023-04-14T06:40:56.001Z,11.80
2023-04-14T06:43:22.407Z,11.73
2023-04-14T06:45:50.616Z,11.03
2023-04-14T06:48:17.044Z,10.67
2023-04-14T06:50:44.449Z,10.33
2023-04-14T06:53:11.004Z,9.43
2023-04-14T06:55:41.018Z,8.70
2023-04-14T06:58:07.417Z,8.77
2023-04-14T07:00:33.881Z,8.87
2023-04-14T07:03:00.447Z,7.37
2023-04-14T07:05:27.093Z,7.97
2023-04-14T07:07:53.453Z,7.83
2023-04-14T07:10:19.849Z,9.57
2023-04-14T07:12:46.194Z,7.37
2023-04-14T07:15:14.165Z,8.47
2023-04-14T07:17:40.555Z,7.70
2023-04-14T07:20:07.814Z,7.33
2023-04-14T07:22:34.411Z,7.87
2023-04-14T07:25:00.762Z,6.57
2023-04-14T07:27:28.590Z,7.23
2023-04-14T07:29:54.925Z,7.40
2023-04-14T07:32:21.402Z,7.10
2023-04-14T07:34:47.924Z,7.67
2023-04-14T07:37:16.385Z,7.73
2023-04-14T07:39:42.737Z,7.17
2023-04-14T07:42:09.064Z,5.80
2023-04-14T07:44:35.453Z,5.53
2023-04-14T07:47:01.899Z,6.17
2023-04-14T07:49:28.306Z,5.90
2023-04-14T07:51:54.719Z,5.70
2023-04-14T07:54:21.687Z,5.27
2023-04-14T07:56:48.669Z,4.57
2023-04-14T07:59:15.565Z,5.00
2023-04-14T08:01:42.486Z,4.97
2023-04-14T08:04:09.164Z,4.40
2023-04-14T08:06:35.636Z,4.27
2023-04-14T08:09:02.420Z,5.47
2023-04-14T08:11:29.140Z,4.83
2023-04-14T08:13:55.678Z,4.10
2023-04-14T08:16:22.518Z,4.10
2023-04-14T08:18:49.272Z,3.47
2023-04-14T08:21:16.520Z,3.70
2023-04-14T08:23:42.996Z,3.50
2023-04-14T08:26:09.442Z,3.57
2023-04-14T08:28:36.982Z,4.87
2023-04-14T08:31:03.416Z,4.83
2023-04-14T08:33:29.828Z,3.87
2023-04-14T08:35:59.893Z,3.30
2023-04-14T08:38:27.548Z,3.83
2023-04-14T08:40:56.309Z,3.80
2023-04-14T08:43:23.277Z,3.60
2023-04-14T08:45:51.704Z,4.47
2023-04-14T08:48:20.494Z,5.30
2023-04-14T08:51:02.278Z,4.97
2023-04-14T08:53:31.695Z,4.07
2023-04-14T08:56:02.506Z,3.50
2023-04-14T08:58:29.240Z,3.87
2023-04-14T09:00:55.965Z,4.27
2023-04-14T09:03:27.141Z,4.63
2023-04-14T09:05:54.152Z,4.13
2023-04-14T09:08:21.004Z,4.30
2023-04-14T09:10:47.363Z,3.83
2023-04-14T09:13:16.636Z,3.20
2023-04-14T09:15:43.681Z,3.00
2023-04-14T09:18:11.357Z,3.47
2023-04-14T09:20:40.751Z,3.53
2023-04-14T09:23:11.986Z,3.27
2023-04-14T09:25:39.410Z,3.20
2023-04-14T09:28:05.847Z,3.00
2023-04-14T09:30:32.927Z,5.50
2023-04-14T09:32:59.417Z,3.13
2023-04-14T09:35:49.002Z,2.60
2023-04-14T09:38:30.709Z,2.80
2023-04-14T09:40:57.385Z,2.63
2023-04-14T09:43:25.467Z,2.57
2023-04-14T09:45:51.900Z,3.43
2023-04-14T09:48:19.385Z,3.37
2023-04-14T09:51:22.166Z,3.67
2023-04-14T09:53:48.738Z,3.30
2023-04-14T09:56:15.739Z,3.40
2023-04-14T09:58:43.833Z,2.73
2023-04-14T10:01:17.771Z,2.77
2023-04-14T10:03:46.682Z,3.87
2023-04-14T10:06:13.413Z,3.10
2023-04-14T10:08:41.723Z,2.70
2023-04-14T10:11:21.146Z,2.97
2023-04-14T10:13:49.340Z,7.53
2023-04-14T10:16:16.098Z,3.47
2023-04-14T10:18:43.012Z,2.77
2023-04-14T10:21:10.378Z,2.50
2023-04-14T10:23:39.152Z,3.37
2023-04-14T10:26:07.769Z,2.83
2023-04-14T10:28:40.872Z,2.97
2023-04-14T10:31:13.217Z,3.23
2023-04-14T10:33:39.689Z,3.23
2023-04-14T10:36:06.547Z,2.97
2023-04-14T10:38:40.656Z,3.37
2023-04-14T10:41:07.642Z,3.10
2023-04-14T10:43:36.572Z,2.70
2023-04-14T10:46:04.678Z,2.60
2023-04-14T10:48:41.296Z,3.00
2023-04-14T10:51:09.741Z,2.77
2023-04-14T10:53:48.514Z,2.77
2023-04-14T10:56:14.915Z,2.80
2023-04-14T10:58:42.025Z,3.10
2023-04-14T11:01:25.897Z,3.53
2023-04-14T11:03:54.780Z,2.43
2023-04-14T11:06:48.378Z,2.70
2023-04-14T11:09:24.302Z,2.40
2023-04-14T11:11:51.563Z,2.50
2023-04-14T11:14:28.138Z,3.30
2023-04-14T11:17:05.281Z,2.80
2023-04-14T11:19:32.996Z,2.60
2023-04-14T11:21:59.374Z,2.53
2023-04-14T11:24:26.567Z,2.73
2023-04-14T11:26:54.617Z,2.23
2023-04-14T11:29:21.913Z,2.13
2023-04-14T11:32:05.340Z,1.90
2023-04-14T11:34:32.828Z,2.77
2023-04-14T11:37:02.870Z,2.73
2023-04-14T11:39:29.851Z,2.47
2023-04-14T11:41:59.980Z,2.50
2023-04-14T11:44:26.354Z,3.63
2023-04-14T11:46:53.659Z,1.93
2023-04-14T11:49:31.972Z,2.40
2023-04-14T11:52:04.611Z,2.10
2023-04-14T11:54:39.840Z,2.13
2023-04-14T11:57:13.538Z,2.23
2023-04-14T11:59:47.480Z,2.43
2023-04-14T12:02:22.020Z,2.43
2023-04-14T12:04:52.021Z,13.03
2023-04-14T12:07:20.280Z,1.90
2023-04-14T12:09:48.860Z,2.00
2023-04-14T12:12:17.308Z,1.90
2023-04-14T12:14:46.033Z,1.90
2023-04-14T12:17:15.149Z,1.53
2023-04-14T12:19:42.279Z,1.97
2023-04-14T12:22:09.489Z,1.37
2023-04-14T12:24:43.349Z,1.97
2023-04-14T12:27:10.052Z,1.17
2023-04-14T12:29:37.113Z,1.60
2023-04-14T12:32:13.636Z,1.97
2023-04-14T12:34:40.408Z,1.70
2023-04-14T12:37:08.461Z,1.70
2023-04-14T12:39:50.766Z,1.50
2023-04-14T12:42:18.088Z,1.50
2023-04-14T12:44:59.211Z,1.80
2023-04-14T12:47:29.276Z,1.20
2023-04-14T12:49:56.857Z,1.73
2023-04-14T12:52:39.827Z,1.93
2023-04-14T12:55:07.934Z,1.50
2023-04-14T12:57:34.953Z,1.87
2023-04-14T13:00:02.078Z,1.30
2023-04-14T13:02:30.207Z,1.57
2023-04-14T13:04:57.000Z,1.63
2023-04-14T13:07:23.575Z,2.03
2023-04-14T13:09:51.493Z,2.20
2023-04-14T13:12:18.486Z,1.97
2023-04-14T13:14:44.908Z,2.30
2023-04-14T13:17:11.293Z,1.60
2023-04-14T13:19:38.030Z,1.30
2023-04-14T13:22:04.443Z,1.77
2023-04-14T13:24:30.826Z,1.37
2023-04-14T13:26:57.317Z,1.23
2023-04-14T13:29:23.653Z,2.27
2023-04-14T13:31:50.022Z,1.50
2023-04-14T13:34:16.571Z,1.70
2023-04-14T13:36:42.886Z,1.77
2023-04-14T13:39:09.274Z,1.30
2023-04-14T13:41:35.617Z,1.87
2023-04-14T13:44:04.166Z,1.37
2023-04-14T13:46:34.457Z,1.60
2023-04-14T13:49:06.922Z,2.20
2023-04-14T13:51:33.516Z,1.87
2023-04-14T13:53:59.944Z,1.70
2023-04-14T13:56:27.123Z,1.33
2023-04-14T13:58:54.252Z,1.70
2023-04-14T14:01:21.056Z,2.03
2023-04-14T14:03:47.890Z,1.97
2023-04-14T14:06:14.534Z,1.73
2023-04-14T14:08:42.137Z,1.80
2023-04-14T14:11:09.513Z,2.07
2023-04-14T14:13:36.946Z,1.70
2023-04-14T14:16:03.757Z,1.93
2023-04-14T14:18:30.180Z,2.00
2023-04-14T14:20:56.572Z,1.50
2023-04-14T14:23:23.267Z,2.07
2023-04-14T14:25:50.140Z,1.70
2023-04-14T14:28:17.139Z,1.80
2023-04-14T14:30:43.688Z,1.63
2023-04-14T14:33:10.653Z,1.70
2023-04-14T14:35:37.718Z,1.20
2023-04-14T14:38:04.067Z,1.90
2023-04-14T14:40:30.821Z,1.50
2023-04-14T14:42:57.339Z,1.60
2023-04-14T14:45:30.587Z,2.37
2023-04-14T14:47:58.019Z,1.87
2023-04-14T14:50:24.398Z,2.17
2023-04-14T14:52:50.721Z,2.13
2023-04-14T14:55:17.201Z,2.33
2023-04-14T14:57:43.536Z,2.50
2023-04-14T15:00:10.851Z,1.97
2023-04-14T15:02:38.560Z,1.90
2023-04-14T15:05:07.111Z,1.43
2023-04-14T15:07:33.817Z,1.80
2023-04-14T15:10:01.457Z,2.23
2023-04-14T15:12:27.824Z,2.00
2023-04-14T15:14:54.152Z,1.63
2023-04-14T15:17:20.488Z,1.57
2023-04-14T15:19:47.087Z,1.93
2023-04-14T15:22:14.789Z,1.93
2023-04-14T15:24:41.137Z,1.90
2023-04-14T15:27:07.487Z,2.90
2023-04-14T15:29:33.838Z,2.20
2023-04-14T15:32:00.376Z,2.27
2023-04-14T15:34:27.667Z,1.97
2023-04-14T15:36:54.111Z,1.77
2023-04-14T15:39:20.774Z,1.40
2023-04-14T15:41:48.980Z,1.50
2023-04-14T15:44:15.385Z,1.60
2023-04-14T15:46:41.710Z,1.93
2023-04-14T15:49:08.029Z,2.00
2023-04-14T15:51:34.525Z,1.77
2023-04-14T15:54:02.043Z,1.50
2023-04-14T15:56:28.963Z,1.80
2023-04-14T15:58:55.552Z,1.43
2023-04-14T16:01:22.075Z,1.50
2023-04-14T16:03:50.535Z,1.80
2023-04-14T16:06:18.891Z,1.97
2023-04-14T16:08:45.314Z,1.67
2023-04-14T16:11:16.086Z,1.90
2023-04-14T16:13:44.052Z,2.80
2023-04-14T16:16:13.020Z,2.30
2023-04-14T16:18:39.442Z,2.50
2023-04-14T16:21:05.920Z,2.13
2023-04-14T16:23:32.259Z,2.23
2023-04-14T16:25:58.638Z,2.30
2023-04-14T16:28:25.681Z,2.33
2023-04-14T16:30:52.081Z,2.03
2023-04-14T16:33:18.515Z,2.30
2023-04-14T16:35:44.913Z,2.37
2023-04-14T16:38:11.276Z,2.23
2023-04-14T16:40:37.897Z,2.83
2023-04-14T16:43:04.396Z,3.07
2023-04-14T16:45:31.940Z,3.40
2023-04-14T16:47:58.575Z,2.60
2023-04-14T16:50:24.961Z,2.90
2023-04-14T16:52:52.271Z,2.70
2023-04-14T16:55:18.787Z,2.30
2023-04-14T16:57:45.177Z,2.63
2023-04-14T17:00:15.064Z,4.00
2023-04-14T17:02:41.813Z,2.90
2023-04-14T17:05:10.384Z,3.37
2023-04-14T17:07:37.040Z,3.83
2023-04-14T17:10:03.535Z,3.90
2023-04-14T17:12:29.896Z,4.10
2023-04-14T17:14:56.291Z,3.50
2023-04-14T17:17:22.775Z,4.27
2023-04-14T17:19:49.338Z,4.10
2023-04-14T17:22:15.720Z,5.00
2023-04-14T17:24:42.743Z,4.00
2023-04-14T17:27:09.124Z,4.83
2023-04-14T17:29:35.675Z,3.57
2023-04-14T17:32:02.285Z,4.17
2023-04-14T17:34:29.549Z,4.20
2023-04-14T17:36:56.448Z,3.80
2023-04-14T17:39:26.569Z,4.90
2023-04-14T17:42:00.488Z,3.47
2023-04-14T17:44:32.342Z,3.20
2023-04-14T17:47:03.367Z,4.13
2023-04-14T17:49:30.640Z,4.83
2023-04-14T17:51:57.258Z,4.50
2023-04-14T17:54:23.708Z,4.47
2023-04-14T17:56:50.343Z,4.20
2023-04-14T17:59:17.631Z,4.93
2023-04-14T18:01:44.029Z,6.37
2023-04-14T18:04:10.824Z,7.23
2023-04-14T18:06:37.284Z,6.73
2023-04-14T18:09:03.917Z,6.70
2023-04-14T18:11:30.343Z,9.53
2023-04-14T18:13:58.014Z,6.43
2023-04-14T18:16:24.932Z,6.40
2023-04-14T18:18:51.488Z,6.50
2023-04-14T18:21:17.847Z,5.80
2023-04-14T18:23:44.189Z,5.27
2023-04-14T18:28:39.985Z,6.43
2023-04-14T18:31:06.529Z,6.43
2023-04-14T18:33:33.146Z,7.07
2023-04-14T18:36:00.501Z,6.23
2023-04-14T18:38:28.213Z,6.83
2023-04-14T18:41:01.110Z,6.27
2023-04-14T18:43:27.435Z,6.03
2023-04-14T18:45:53.806Z,5.77
2023-04-14T18:48:20.282Z,6.33
2023-04-14T18:50:46.663Z,5.33
2023-04-14T18:53:13.215Z,5.90
2023-04-14T18:55:44.987Z,5.80
2023-04-14T18:58:12.653Z,5.83
2023-04-14T19:00:39.503Z,5.00
2023-04-14T19:03:07.018Z,5.80
2023-04-14T19:05:35.057Z,5.70
2023-04-14T19:08:02.315Z,5.77
2023-04-14T19:10:29.207Z,5.27
2023-04-14T19:12:55.596Z,5.83
2023-04-14T19:15:21.911Z,6.27
2023-04-14T19:17:48.463Z,5.37
2023-04-14T19:20:15.256Z,5.77
2023-04-14T19:22:41.738Z,5.13
2023-04-14T19:25:08.551Z,6.07
2023-04-14T19:27:35.993Z,5.63
2023-04-14T19:30:04.020Z,5.53
2023-04-14T19:32:30.476Z,5.27
2023-04-14T19:34:57.394Z,6.30
2023-04-14T19:37:23.723Z,5.13
2023-04-14T19:39:50.338Z,5.20
2023-04-14T19:42:16.939Z,6.37
2023-04-14T19:44:43.319Z,6.00
2023-04-14T19:47:09.638Z,6.40
2023-04-14T19:49:36.083Z,7.13
2023-04-14T19:52:04.578Z,6.90
2023-04-14T19:54:31.265Z,8.80
2023-04-14T19:56:57.581Z,8.00
2023-04-14T19:59:23.916Z,10.47
2023-04-14T20:01:51.397Z,8.43
2023-04-14T20:04:18.401Z,7.07
2023-04-14T20:06:44.782Z,7.03
2023-04-14T20:09:11.102Z,7.10
2023-04-14T20:11:37.529Z,7.07
2023-04-14T20:14:04.363Z,7.03
2023-04-14T20:16:30.796Z,6.30
2023-04-14T20:18:57.408Z,6.90
2023-04-14T20:21:24.055Z,6.07
2023-04-14T20:23:50.383Z,6.43
2023-04-14T20:26:17.155Z,7.13
2023-04-14T20:28:43.673Z,7.43
2023-04-14T20:31:10.385Z,7.07
2023-04-14T20:33:36.897Z,8.77
2023-04-14T20:36:03.692Z,9.37
2023-04-14T20:38:30.149Z,11.07
2023-04-14T20:40:56.586Z,10.10
2023-04-14T20:43:23.106Z,8.37
2023-04-14T20:45:49.785Z,8.63
2023-04-14T20:48:16.577Z,9.20
2023-04-14T20:50:44.281Z,8.90
2023-04-14T20:53:10.712Z,11.03
2023-04-14T20:55:37.182Z,8.67
2023-04-14T20:58:03.912Z,9.27
2023-04-14T21:00:32.509Z,10.33
2023-04-14T21:03:00.902Z,11.70
2023-04-14T21:05:27.366Z,11.03
2023-04-14T21:07:53.758Z,11.93
2023-04-14T21:10:20.626Z,12.40
2023-04-14T21:15:25.022Z,13.63
2023-04-14T21:15:54.064Z,13.13
2023-04-14T21:18:19.896Z,15.33
2023-04-14T21:20:46.210Z,12.27
2023-04-14T21:23:12.590Z,10.70
2023-04-14T21:25:39.004Z,11.17
2023-04-14T21:28:05.551Z,11.10
2023-04-14T21:30:32.125Z,12.80
2023-04-14T21:32:59.089Z,12.83
2023-04-14T21:35:25.859Z,17.10
2023-04-14T21:37:52.273Z,14.33
2023-04-14T21:40:19.018Z,16.13
2023-04-14T21:42:45.732Z,12.80
2023-04-14T21:45:12.081Z,13.07
2023-04-14T21:47:38.486Z,11.90
2023-04-14T21:50:07.129Z,10.77
2023-04-14T21:52:33.488Z,12.23
2023-04-14T21:54:59.902Z,12.13
2023-04-14T21:57:44.523Z,10.80
2023-04-14T22:00:15.416Z,12.47
2023-04-14T22:02:42.902Z,10.30
2023-04-14T22:05:09.885Z,10.23
2023-04-14T22:07:36.380Z,10.60
2023-04-14T22:10:03.407Z,11.20
2023-04-14T22:12:35.674Z,10.63
2023-04-14T22:15:04.132Z,11.23
2023-04-14T22:17:31.045Z,11.30
2023-04-14T22:19:57.616Z,9.80
2023-04-14T22:22:24.283Z,10.60
2023-04-14T22:24:51.615Z,10.33
2023-04-14T22:27:17.967Z,10.27
2023-04-14T22:29:44.301Z,10.03
2023-04-14T22:32:10.662Z,10.90
2023-04-14T22:34:37.330Z,9.33
2023-04-14T22:37:03.737Z,10.10
2023-04-14T22:39:30.311Z,10.40
2023-04-14T22:41:56.618Z,9.50
2023-04-14T22:44:22.959Z,11.23
2023-04-14T22:46:49.259Z,11.00
2023-04-14T22:49:15.789Z,10.10
2023-04-14T22:51:42.097Z,10.37
2023-04-14T22:54:08.936Z,10.13
2023-04-14T22:56:36.974Z,10.77
2023-04-14T22:59:03.532Z,10.87
2023-04-14T23:01:30.322Z,10.63
2023-04-14T23:03:56.753Z,11.03
2023-04-14T23:06:24.029Z,11.17
2023-04-14T23:08:50.899Z,10.80
2023-04-14T23:11:20.760Z,11.50
2023-04-14T23:13:48.813Z,11.97
2023-04-14T23:16:19.583Z,10.90
2023-04-14T23:18:52.903Z,11.87
2023-04-14T23:21:22.938Z,12.07
2023-04-14T23:23:49.884Z,11.17
2023-04-14T23:26:17.225Z,12.43
2023-04-14T23:28:43.594Z,12.63
2023-04-14T23:31:09.984Z,13.27
2023-04-14T23:33:36.457Z,12.23
2023-04-14T23:36:02.827Z,13.57
2023-04-14T23:38:29.187Z,13.30
2023-04-14T23:40:58.754Z,13.33
2023-04-14T23:43:25.930Z,12.00
2023-04-14T23:45:52.490Z,12.43
2023-04-14T23:48:18.870Z,12.30
2023-04-14T23:51:00.628Z,12.57
2023-04-14T23:53:31.564Z,12.43
2023-04-14T23:55:58.139Z,12.57
2023-04-14T23:58:26.897Z,11.57
